createdAt,value
2022-12-27T00:01:15.640Z,4.70
2022-12-27T00:06:15.771Z,4.80
2022-12-27T00:08:43.393Z,4.70
2022-12-27T00:11:12.327Z,4.70
2022-12-27T00:13:39.448Z,4.70
2022-12-27T00:16:08.670Z,4.70
2022-12-27T00:18:36.127Z,4.70
2022-12-27T00:21:04.319Z,4.70
2022-12-27T00:23:36.603Z,4.70
2022-12-27T00:26:06.070Z,4.70
2022-12-27T00:28:34.320Z,4.80
2022-12-27T00:33:32.363Z,4.90
2022-12-27T00:36:01.072Z,4.90
2022-12-27T00:38:28.391Z,4.90
2022-12-27T00:50:44.119Z,5.00
2022-12-27T00:53:11.834Z,5.00
2022-12-27T01:20:09.325Z,5.00
2022-12-27T01:34:51.431Z,4.90
2022-12-27T01:42:35.690Z,4.90
2022-12-27T01:45:21.434Z,5.00
2022-12-27T01:50:23.097Z,4.90
2022-12-27T01:53:13.073Z,5.00
2022-12-27T01:56:01.020Z,5.00
2022-12-27T01:58:42.447Z,5.00
2022-12-27T02:01:20.631Z,5.00
2022-12-27T02:03:59.266Z,5.00
2022-12-27T02:06:27.926Z,4.90
2022-12-27T02:09:02.751Z,4.90
2022-12-27T02:11:51.063Z,4.90
2022-12-27T02:14:28.615Z,4.90
2022-12-27T02:16:57.997Z,4.90
2022-12-27T02:20:07.612Z,4.80
2022-12-27T02:23:21.287Z,4.80
2022-12-27T02:26:22.891Z,4.80
2022-12-27T02:29:37.761Z,4.80
2022-12-27T02:34:40.858Z,4.70
2022-12-27T02:37:11.470Z,4.70
2022-12-27T02:39:42.831Z,4.70
2022-12-27T02:42:30.215Z,4.60
2022-12-27T02:45:15.618Z,4.50
2022-12-27T02:48:12.693Z,4.50
2022-12-27T02:51:30.062Z,4.50
2022-12-27T02:54:15.257Z,4.50
2022-12-27T02:57:11.382Z,4.40
2022-12-27T03:00:20.539Z,4.40
2022-12-27T03:03:24.060Z,4.40
2022-12-27T03:06:27.082Z,4.30
2022-12-27T03:09:50.397Z,4.30
2022-12-27T03:12:57.624Z,4.30
2022-12-27T03:16:01.184Z,4.30
2022-12-27T03:21:16.649Z,4.40
2022-12-27T03:24:04.495Z,4.30
2022-12-27T03:26:34.372Z,4.30
2022-12-27T03:29:21.003Z,4.30
2022-12-27T03:32:12.420Z,4.30
2022-12-27T03:34:42.891Z,4.30
2022-12-27T03:37:32.574Z,4.30
2022-12-27T03:40:24.639Z,4.30
2022-12-27T03:43:10.690Z,4.30
2022-12-27T03:46:03.713Z,4.30
2022-12-27T03:48:35.344Z,4.30
2022-12-27T03:51:05.792Z,4.50
2022-12-27T03:53:42.758Z,4.40
2022-12-27T03:56:10.597Z,4.30
2022-12-27T03:58:37.198Z,4.30
2022-12-27T04:17:01.490Z,4.70
2022-12-27T04:36:06.390Z,5.00
2022-12-27T04:38:33.391Z,5.00
2022-12-27T04:49:41.751Z,5.10
2022-12-27T04:52:41.769Z,5.10
2022-12-27T04:55:22.213Z,5.20
2022-12-27T05:00:36.723Z,5.20
2022-12-27T05:03:07.287Z,5.30
2022-12-27T05:05:36.776Z,5.30
2022-12-27T05:08:23.466Z,5.20
2022-12-27T05:26:33.765Z,5.40
2022-12-27T05:31:29.467Z,5.50
2022-12-27T05:36:24.247Z,5.40
2022-12-27T05:41:18.731Z,5.50
2022-12-27T05:46:18.808Z,5.50
2022-12-27T05:51:18.879Z,5.50
2022-12-27T05:53:46.522Z,5.40
2022-12-27T05:56:19.701Z,5.40
2022-12-27T05:58:46.931Z,5.30
2022-12-27T06:01:16.561Z,5.30
2022-12-27T06:06:10.865Z,5.30
2022-12-27T06:08:38.710Z,5.30
2022-12-27T06:13:32.693Z,5.30
2022-12-27T06:16:01.276Z,5.40
2022-12-27T06:18:32.655Z,5.40
2022-12-27T06:21:10.712Z,5.30
2022-12-27T06:23:39.355Z,5.40
2022-12-27T06:26:12.699Z,5.40
2022-12-27T06:31:09.594Z,5.50
2022-12-27T06:36:24.591Z,5.50
2022-12-27T06:43:46.714Z,5.60
2022-12-27T06:46:18.388Z,5.60
2022-12-27T06:48:46.496Z,5.60
2022-12-27T06:51:15.036Z,5.70
2022-12-27T06:56:11.693Z,5.70
2022-12-27T06:58:38.708Z,5.70
2022-12-27T07:01:26.103Z,5.80
2022-12-27T07:04:00.461Z,5.80
2022-12-27T07:06:29.504Z,5.70
2022-12-27T07:08:57.386Z,5.70
2022-12-27T07:11:25.303Z,5.80
2022-12-27T07:13:54.440Z,5.70
2022-12-27T07:16:23.625Z,5.70
2022-12-27T07:21:20.498Z,5.80
2022-12-27T07:26:25.867Z,5.80
2022-12-27T07:29:00.937Z,5.80
2022-12-27T07:31:31.513Z,5.80
2022-12-27T07:34:00.187Z,5.80
2022-12-27T07:36:29.853Z,5.80
2022-12-27T07:38:56.523Z,5.90
2022-12-27T07:46:22.926Z,6.00
2022-12-27T07:51:17.454Z,6.00
2022-12-27T07:53:44.911Z,6.10
2022-12-27T07:56:17.677Z,6.00
2022-12-27T07:58:49.084Z,6.10
2022-12-27T08:01:17.451Z,6.10
2022-12-27T08:06:31.076Z,4.70
2022-12-27T08:08:59.470Z,6.10
2022-12-27T08:16:24.737Z,6.10
2022-12-27T08:18:53.097Z,6.00
2022-12-27T08:26:14.333Z,6.00
2022-12-27T08:28:41.345Z,6.00
2022-12-27T08:31:09.599Z,6.00
2022-12-27T08:36:44.767Z,6.00
2022-12-27T08:38:55.865Z,6.00
2022-12-27T08:41:23.165Z,6.10
2022-12-27T08:46:19.252Z,6.10
2022-12-27T08:48:49.608Z,6.00
2022-12-27T08:56:24.846Z,6.10
2022-12-27T09:06:15.675Z,6.00
2022-12-27T09:08:43.802Z,6.00
2022-12-27T09:11:25.438Z,6.00
2022-12-27T09:16:22.413Z,6.00
2022-12-27T09:18:51.598Z,5.90
2022-12-27T09:26:21.212Z,6.00
2022-12-27T09:28:48.954Z,6.00
2022-12-27T09:31:17.202Z,6.00
2022-12-27T09:36:16.979Z,6.10
2022-12-27T09:38:44.648Z,6.10
2022-12-27T09:44:32.182Z,6.10
2022-12-27T09:47:25.181Z,6.20
2022-12-27T09:50:07.001Z,6.20
2022-12-27T09:52:45.796Z,6.20
2022-12-27T09:55:23.596Z,6.20
2022-12-27T09:57:54.322Z,6.30
2022-12-27T10:00:34.612Z,6.30
2022-12-27T10:03:06.310Z,6.30
2022-12-27T10:05:36.859Z,6.30
2022-12-27T10:08:25.697Z,6.40
2022-12-27T10:11:38.657Z,6.40
2022-12-27T10:14:32.477Z,6.40
2022-12-27T10:17:22.751Z,6.30
2022-12-27T10:20:08.640Z,6.40
2022-12-27T10:23:11.573Z,6.50
2022-12-27T10:25:40.028Z,6.40
2022-12-27T10:28:35.804Z,6.40
2022-12-27T10:31:04.308Z,6.40
2022-12-27T10:33:33.815Z,6.40
2022-12-27T10:36:11.779Z,6.50
2022-12-27T10:41:36.230Z,6.40
2022-12-27T10:46:33.419Z,6.60
2022-12-27T10:51:51.378Z,6.60
2022-12-27T10:54:29.544Z,6.60
2022-12-27T10:57:15.358Z,6.60
2022-12-27T11:02:18.807Z,6.70
2022-12-27T11:05:19.107Z,6.70
2022-12-27T11:10:20.096Z,6.80
2022-12-27T11:12:58.097Z,6.90
2022-12-27T11:17:54.992Z,7.00
2022-12-27T11:20:44.713Z,6.90
2022-12-27T11:23:18.313Z,6.90
2022-12-27T11:25:59.829Z,6.80
2022-12-27T11:28:32.311Z,6.90
2022-12-27T11:31:05.254Z,6.80
2022-12-27T11:33:46.491Z,6.90
2022-12-27T11:36:15.168Z,7.00
2022-12-27T11:38:44.857Z,7.00
2022-12-27T11:41:42.889Z,7.00
2022-12-27T11:47:03.717Z,7.00
2022-12-27T11:49:44.295Z,7.00
2022-12-27T11:52:19.043Z,7.00
2022-12-27T11:57:34.512Z,6.90
2022-12-27T12:00:22.976Z,7.10
2022-12-27T12:03:01.844Z,7.10
2022-12-27T12:05:45.433Z,7.00
2022-12-27T12:08:32.767Z,7.10
2022-12-27T12:11:15.979Z,7.10
2022-12-27T12:16:15.846Z,7.20
2022-12-27T12:24:24.390Z,7.40
2022-12-27T12:29:36.912Z,7.40
2022-12-27T12:32:09.155Z,7.40
2022-12-27T12:37:24.579Z,7.40
2022-12-27T12:40:19.931Z,7.50
2022-12-27T12:42:53.232Z,7.50
2022-12-27T12:45:28.673Z,7.60
2022-12-27T12:48:17.268Z,7.60
2022-12-27T12:51:07.968Z,7.60
2022-12-27T12:54:00.833Z,7.70
2022-12-27T12:59:22.825Z,7.70
2022-12-27T13:02:14.697Z,7.70
2022-12-27T13:05:02.685Z,7.70
2022-12-27T13:07:46.568Z,7.70
2022-12-27T13:10:31.888Z,7.70
2022-12-27T13:13:18.162Z,7.60
2022-12-27T13:16:12.503Z,7.70
2022-12-27T13:19:03.762Z,7.70
2022-12-27T13:22:03.881Z,7.70
2022-12-27T13:24:42.304Z,5.80
2022-12-27T13:27:15.910Z,7.70
2022-12-27T13:30:17.547Z,7.70
2022-12-27T13:33:13.543Z,7.70
2022-12-27T13:36:17.802Z,7.70
2022-12-27T13:39:25.941Z,7.70
2022-12-27T13:44:26.919Z,7.70
2022-12-27T13:49:39.427Z,7.80
2022-12-27T13:52:09.089Z,7.80
2022-12-27T13:54:59.456Z,7.80
2022-12-27T13:57:59.225Z,7.80
2022-12-27T14:00:34.894Z,7.80
2022-12-27T14:03:21.499Z,7.70
2022-12-27T14:06:03.116Z,7.70
2022-12-27T14:08:51.423Z,5.60
2022-12-27T14:11:53.524Z,7.80
2022-12-27T14:14:21.574Z,7.80
2022-12-27T14:16:59.356Z,7.80
2022-12-27T14:19:54.319Z,7.80
2022-12-27T14:22:42.495Z,7.70
2022-12-27T14:28:11.723Z,7.70
2022-12-27T14:33:42.907Z,7.70
2022-12-27T14:36:38.606Z,7.60
2022-12-27T14:39:41.189Z,7.50
2022-12-27T14:45:12.685Z,7.40
2022-12-27T14:48:11.591Z,7.30
2022-12-27T14:51:26.177Z,7.30
2022-12-27T14:54:15.854Z,7.30
2022-12-27T14:56:51.987Z,7.20
2022-12-27T14:59:33.735Z,7.20
2022-12-27T15:02:30.434Z,7.20
2022-12-27T15:10:30.250Z,7.20
2022-12-27T15:13:13.575Z,7.30
2022-12-27T15:15:59.464Z,3.50
2022-12-27T15:19:03.615Z,7.20
2022-12-27T15:21:55.200Z,7.20
2022-12-27T15:24:42.877Z,7.10
2022-12-27T15:27:20.041Z,7.10
2022-12-27T15:30:08.763Z,4.10
2022-12-27T15:32:53.043Z,7.00
2022-12-27T15:35:49.890Z,7.00
2022-12-27T15:38:37.978Z,7.00
2022-12-27T15:41:07.666Z,7.00
2022-12-27T15:43:49.999Z,7.00
2022-12-27T15:49:10.672Z,7.00
2022-12-27T15:51:50.088Z,7.00
2022-12-27T15:54:51.847Z,7.00
2022-12-27T15:57:39.913Z,6.90
2022-12-27T16:00:14.449Z,6.90
2022-12-27T16:02:44.311Z,6.90
2022-12-27T16:05:19.043Z,6.90
2022-12-27T16:07:47.689Z,6.70
2022-12-27T16:10:32.231Z,6.80
2022-12-27T16:13:04.874Z,6.60
2022-12-27T16:15:34.676Z,6.90
2022-12-27T16:18:02.637Z,6.80
2022-12-27T16:20:31.493Z,6.80
2022-12-27T16:23:07.777Z,6.80
2022-12-27T16:25:40.204Z,6.70
2022-12-27T16:28:15.943Z,6.70
2022-12-27T16:30:48.684Z,6.70
2022-12-27T16:33:25.976Z,6.70
2022-12-27T16:36:11.412Z,6.80
2022-12-27T16:38:44.309Z,6.70
2022-12-27T16:41:25.433Z,6.70
2022-12-27T16:44:05.512Z,6.70
2022-12-27T16:46:51.461Z,6.80
2022-12-27T16:49:43.145Z,6.80
2022-12-27T16:52:12.786Z,6.70
2022-12-27T16:54:50.142Z,6.60
2022-12-27T16:57:26.199Z,6.80
2022-12-27T17:00:07.320Z,6.80
2022-12-27T17:02:37.145Z,6.90
2022-12-27T17:05:26.949Z,6.90
2022-12-27T17:13:01.288Z,7.00
2022-12-27T17:17:59.513Z,6.90
2022-12-27T17:20:26.226Z,6.90
2022-12-27T17:22:56.764Z,7.00
2022-12-27T17:25:36.877Z,6.90
2022-12-27T17:28:23.822Z,7.00
2022-12-27T17:31:04.923Z,7.00
2022-12-27T17:34:03.890Z,7.00
2022-12-27T17:37:00.199Z,7.00
2022-12-27T17:39:40.629Z,6.90
2022-12-27T17:42:46.092Z,7.00
2022-12-27T17:45:41.452Z,6.80
2022-12-27T17:48:23.080Z,6.90
2022-12-27T17:50:54.467Z,7.00
2022-12-27T17:53:42.058Z,7.00
2022-12-27T17:59:22.774Z,7.00
2022-12-27T18:02:06.464Z,7.00
2022-12-27T18:04:40.468Z,6.90
2022-12-27T18:07:10.846Z,7.00
2022-12-27T18:12:11.153Z,7.00
2022-12-27T18:17:05.235Z,7.00
2022-12-27T18:19:32.676Z,7.00
2022-12-27T18:22:01.968Z,7.00
2022-12-27T18:24:33.478Z,7.00
2022-12-27T18:27:15.840Z,7.00
2022-12-27T18:29:43.533Z,7.00
2022-12-27T18:32:14.029Z,7.00
2022-12-27T18:34:55.686Z,7.00
2022-12-27T18:37:24.639Z,7.00
2022-12-27T18:39:57.552Z,7.00
2022-12-27T18:42:34.207Z,7.00
2022-12-27T18:45:08.345Z,7.00
2022-12-27T18:47:39.905Z,7.00
2022-12-27T18:50:17.557Z,7.00
2022-12-27T18:57:48.186Z,7.00
2022-12-27T19:00:26.450Z,6.90
2022-12-27T19:02:54.905Z,6.90
2022-12-27T19:07:54.002Z,6.80
2022-12-27T19:10:23.840Z,6.80
2022-12-27T19:15:24.753Z,6.80
2022-12-27T19:17:55.329Z,6.80
2022-12-27T19:20:31.605Z,6.80
2022-12-27T19:23:21.314Z,6.80
2022-12-27T19:25:58.889Z,6.70
2022-12-27T19:28:30.235Z,6.70
2022-12-27T19:31:19.700Z,6.60
2022-12-27T19:33:55.711Z,6.60
2022-12-27T19:36:27.239Z,6.60
2022-12-27T19:41:21.386Z,6.50
2022-12-27T19:51:16.023Z,6.50
2022-12-27T19:53:44.066Z,6.50
2022-12-27T19:56:11.660Z,6.40
2022-12-27T20:08:50.475Z,6.30
2022-12-27T20:11:21.901Z,6.30
2022-12-27T20:13:49.615Z,6.20
2022-12-27T20:16:18.548Z,6.20
2022-12-27T20:21:17.553Z,6.20
2022-12-27T20:23:44.785Z,6.20
2022-12-27T20:26:16.281Z,6.10
2022-12-27T20:31:13.055Z,5.90
2022-12-27T20:36:08.459Z,5.90
2022-12-27T20:38:37.088Z,5.90
2022-12-27T20:41:12.837Z,5.80
2022-12-27T20:43:39.993Z,5.80
2022-12-27T20:46:08.293Z,5.80
2022-12-27T20:48:39.326Z,5.80
2022-12-27T21:23:03.370Z,5.70
2022-12-27T21:32:51.080Z,5.70
2022-12-27T21:47:33.337Z,5.50
2022-12-27T22:07:12.205Z,5.50
2022-12-27T22:41:36.415Z,5.60
2022-12-27T22:44:07.621Z,5.60
2022-12-27T22:59:12.324Z,5.40
2022-12-27T23:01:40.431Z,5.50
2022-12-27T23:04:08.771Z,5.30
2022-12-27T23:06:36.493Z,5.50
2022-12-27T23:09:04.251Z,5.40
2022-12-27T23:11:33.971Z,5.40
2022-12-27T23:14:06.616Z,5.50
2022-12-27T23:16:41.951Z,5.50
2022-12-27T23:19:13.102Z,5.50
2022-12-27T23:24:07.510Z,5.60
2022-12-27T23:31:29.075Z,5.60
2022-12-27T23:41:20.509Z,5.60
2022-12-27T23:46:29.342Z,5.60
2022-12-27T23:49:00.969Z,5.60
2022-12-27T23:56:31.776Z,5.50
2022-12-27T23:59:00.173Z,5.50
